createdAt,value
2019-05-28T00:00:18.974Z,3.40
2019-05-28T00:02:48.634Z,2.93
2019-05-28T00:05:18.581Z,3.07
2019-05-28T00:07:48.218Z,2.87
2019-05-28T00:10:18.597Z,3.17
2019-05-28T00:12:48.159Z,3.00
2019-05-28T00:15:17.740Z,2.90
2019-05-28T00:17:47.381Z,3.23
2019-05-28T00:20:17.274Z,2.70
2019-05-28T00:22:46.875Z,2.80
2019-05-28T00:25:16.954Z,2.33
2019-05-28T00:27:46.625Z,2.70
2019-05-28T00:30:20.320Z,3.15
2019-05-28T00:32:47.642Z,2.90
2019-05-28T00:35:17.427Z,2.70
2019-05-28T00:37:47.079Z,2.80
2019-05-28T00:40:17.065Z,2.60
2019-05-28T00:42:46.708Z,2.90
2019-05-28T00:45:16.935Z,2.77
2019-05-28T00:47:46.588Z,3.23
2019-05-28T00:50:16.784Z,3.10
2019-05-28T00:52:46.361Z,3.07
2019-05-28T00:55:17.007Z,2.87
2019-05-28T00:57:49.282Z,2.70
2019-05-28T01:00:36.543Z,3.23
2019-05-28T01:02:56.409Z,2.90
2019-05-28T01:05:25.995Z,2.77
2019-05-28T01:07:55.570Z,2.70
2019-05-28T01:10:26.232Z,2.60
2019-05-28T01:12:55.867Z,2.73
2019-05-28T01:15:25.450Z,2.47
2019-05-28T01:17:55.168Z,2.63
2019-05-28T01:20:24.821Z,3.13
2019-05-28T01:22:54.396Z,2.60
2019-05-28T01:25:23.999Z,3.00
2019-05-28T01:27:56.836Z,3.37
2019-05-28T01:30:26.443Z,3.57
2019-05-28T01:32:56.100Z,3.27
2019-05-28T01:35:25.686Z,3.23
2019-05-28T01:37:55.383Z,2.87
2019-05-28T01:40:25.014Z,2.57
2019-05-28T01:42:54.639Z,2.83
2019-05-28T01:45:24.314Z,3.27
2019-05-28T01:47:57.444Z,2.90
2019-05-28T01:50:25.253Z,3.20
2019-05-28T01:52:54.898Z,2.90
2019-05-28T01:55:24.579Z,3.27
2019-05-28T01:57:54.170Z,3.47
2019-05-28T02:00:24.044Z,3.00
2019-05-28T02:02:53.720Z,3.23
2019-05-28T02:05:23.366Z,3.00
2019-05-28T02:07:53.110Z,3.00
2019-05-28T02:10:22.708Z,3.03
2019-05-28T02:12:52.296Z,3.03
2019-05-28T02:15:22.192Z,3.95
2019-05-28T02:17:52.857Z,3.30
2019-05-28T02:20:22.522Z,3.90
2019-05-28T02:22:52.174Z,2.67
2019-05-28T02:25:21.838Z,2.77
2019-05-28T02:27:51.479Z,2.80
2019-05-28T02:30:24.030Z,2.63
2019-05-28T02:32:53.939Z,3.07
2019-05-28T02:35:23.535Z,3.02
2019-05-28T02:37:53.154Z,3.47
2019-05-28T02:40:23.206Z,3.73
2019-05-28T02:42:52.806Z,2.77
2019-05-28T02:45:23.270Z,2.90
2019-05-28T02:47:53.939Z,3.17
2019-05-28T02:50:42.975Z,3.00
2019-05-28T02:53:12.648Z,3.07
2019-05-28T02:55:45.315Z,3.40
2019-05-28T02:58:16.115Z,2.53
2019-05-28T03:00:46.689Z,2.70
2019-05-28T03:03:16.708Z,2.47
2019-05-28T03:05:47.832Z,3.00
2019-05-28T03:08:20.385Z,2.60
2019-05-28T03:11:02.334Z,2.87
2019-05-28T03:13:22.436Z,2.80
2019-05-28T03:15:55.326Z,3.23
2019-05-28T03:18:27.528Z,2.53
2019-05-28T03:20:59.008Z,2.80
2019-05-28T03:23:31.356Z,3.07
2019-05-28T03:26:00.875Z,3.37
2019-05-28T03:28:30.528Z,3.03
2019-05-28T03:31:00.328Z,3.33
2019-05-28T03:33:29.940Z,3.10
2019-05-28T03:36:01.682Z,2.87
2019-05-28T03:38:32.604Z,3.00
2019-05-28T03:41:02.264Z,2.70
2019-05-28T03:43:32.147Z,3.23
2019-05-28T03:46:01.797Z,3.07
2019-05-28T03:48:31.423Z,2.80
2019-05-28T03:51:01.079Z,2.60
2019-05-28T03:53:30.610Z,3.00
2019-05-28T03:56:00.247Z,3.27
2019-05-28T03:58:29.821Z,2.40
2019-05-28T04:00:59.409Z,3.07
2019-05-28T04:03:29.017Z,2.50
2019-05-28T04:05:58.575Z,2.97
2019-05-28T04:08:28.154Z,3.30
2019-05-28T04:10:57.722Z,3.10
2019-05-28T04:13:27.316Z,2.57
2019-05-28T04:15:56.920Z,2.93
2019-05-28T04:18:26.416Z,2.70
2019-05-28T04:20:56.027Z,2.50
2019-05-28T04:23:25.627Z,2.40
2019-05-28T04:25:55.198Z,2.60
2019-05-28T04:28:24.878Z,2.57
2019-05-28T04:30:54.471Z,2.40
2019-05-28T04:33:24.107Z,2.57
2019-05-28T04:35:53.772Z,2.50
2019-05-28T04:38:23.374Z,2.70
2019-05-28T04:40:53.036Z,2.30
2019-05-28T04:43:22.610Z,2.67
2019-05-28T04:45:52.295Z,2.60
2019-05-28T04:48:21.944Z,2.37
2019-05-28T04:50:51.536Z,2.10
2019-05-28T04:53:21.088Z,2.73
2019-05-28T04:55:50.691Z,2.37
2019-05-28T04:58:20.183Z,2.43
2019-05-28T05:00:49.799Z,2.20
2019-05-28T05:03:19.392Z,2.50
2019-05-28T05:05:48.978Z,2.10
2019-05-28T05:08:18.512Z,2.13
2019-05-28T05:10:48.149Z,1.80
2019-05-28T05:13:17.758Z,2.30
2019-05-28T05:15:47.406Z,2.57
2019-05-28T05:18:17.032Z,2.17
2019-05-28T05:20:46.704Z,2.10
2019-05-28T05:23:16.284Z,2.33
2019-05-28T05:25:45.959Z,2.00
2019-05-28T05:28:15.609Z,2.37
2019-05-28T05:30:46.177Z,2.17
2019-05-28T05:33:20.257Z,2.00
2019-05-28T05:35:47.008Z,2.00
2019-05-28T05:38:16.605Z,2.00
2019-05-28T05:40:46.193Z,1.97
2019-05-28T05:43:15.911Z,2.07
2019-05-28T05:45:45.504Z,2.03
2019-05-28T05:48:15.084Z,2.10
2019-05-28T05:50:45.429Z,2.27
2019-05-28T05:53:15.115Z,2.03
2019-05-28T05:55:44.793Z,2.67
2019-05-28T05:58:14.311Z,1.93
2019-05-28T06:00:43.973Z,2.30
2019-05-28T06:03:13.551Z,1.80
2019-05-28T06:05:43.156Z,2.00
2019-05-28T06:08:12.838Z,2.30
2019-05-28T06:10:42.344Z,1.90
2019-05-28T06:13:11.976Z,2.03
2019-05-28T06:15:41.643Z,2.23
2019-05-28T06:18:11.382Z,2.33
2019-05-28T06:20:41.074Z,2.30
2019-05-28T06:23:10.862Z,2.20
2019-05-28T06:25:40.776Z,2.43
2019-05-28T06:28:10.406Z,2.00
2019-05-28T06:30:40.051Z,1.83
2019-05-28T06:33:09.636Z,1.83
2019-05-28T06:35:39.173Z,2.23
2019-05-28T06:38:08.847Z,1.93
2019-05-28T06:40:38.453Z,1.67
2019-05-28T06:43:08.041Z,1.60
2019-05-28T06:45:37.629Z,1.60
2019-05-28T06:48:07.227Z,1.50
2019-05-28T06:50:36.882Z,1.53
2019-05-28T06:53:06.654Z,2.00
2019-05-28T06:55:36.424Z,1.70
2019-05-28T06:58:06.088Z,1.80
2019-05-28T07:00:35.751Z,1.77
2019-05-28T07:03:05.445Z,1.70
2019-05-28T07:05:35.135Z,2.03
2019-05-28T07:08:04.799Z,1.60
2019-05-28T07:10:34.461Z,2.03
2019-05-28T07:13:04.115Z,1.80
2019-05-28T07:15:33.803Z,1.80
2019-05-28T07:18:03.393Z,1.60
2019-05-28T07:20:32.984Z,1.67
2019-05-28T07:23:02.580Z,1.30
2019-05-28T07:25:32.169Z,1.80
2019-05-28T07:28:11.211Z,1.50
2019-05-28T07:30:33.049Z,1.47
2019-05-28T07:33:02.783Z,1.50
2019-05-28T07:35:45.333Z,1.43
2019-05-28T07:38:03.868Z,1.60
2019-05-28T07:40:33.520Z,1.53
2019-05-28T07:43:03.237Z,1.50
2019-05-28T07:45:32.880Z,1.40
2019-05-28T07:48:02.472Z,1.57
2019-05-28T07:50:32.130Z,1.40
2019-05-28T07:53:01.730Z,1.70
2019-05-28T07:55:31.357Z,1.70
2019-05-28T07:58:00.941Z,1.50
2019-05-28T08:00:41.097Z,2.00
2019-05-28T08:03:10.894Z,1.50
2019-05-28T08:05:40.458Z,1.50
2019-05-28T08:08:12.421Z,1.73
2019-05-28T08:10:42.018Z,2.00
2019-05-28T08:13:11.741Z,1.73
2019-05-28T08:15:41.380Z,1.63
2019-05-28T08:18:10.985Z,1.37
2019-05-28T08:20:40.573Z,1.20
2019-05-28T08:23:10.144Z,1.80
2019-05-28T08:25:47.603Z,1.57
2019-05-28T08:28:19.842Z,1.50
2019-05-28T08:30:43.369Z,1.47
2019-05-28T08:33:13.045Z,1.77
2019-05-28T08:35:43.775Z,1.40
2019-05-28T08:38:14.443Z,1.60
2019-05-28T08:40:44.222Z,1.60
2019-05-28T08:43:13.825Z,1.50
2019-05-28T08:45:43.420Z,1.20
2019-05-28T08:48:13.002Z,1.30
2019-05-28T08:50:42.512Z,1.43
2019-05-28T08:53:12.100Z,1.33
2019-05-28T08:55:41.756Z,1.50
2019-05-28T08:58:11.539Z,1.50
2019-05-28T09:00:43.975Z,1.40
2019-05-28T09:03:13.683Z,1.60
2019-05-28T09:05:43.383Z,1.50
2019-05-28T09:08:13.045Z,1.27
2019-05-28T09:10:42.701Z,1.60
2019-05-28T09:13:12.379Z,1.63
2019-05-28T09:15:41.979Z,1.17
2019-05-28T09:18:12.686Z,1.00
2019-05-28T09:20:42.306Z,1.30
2019-05-28T09:23:11.959Z,1.30
2019-05-28T09:25:41.570Z,1.30
2019-05-28T09:28:28.441Z,1.20
2019-05-28T09:30:43.582Z,1.13
2019-05-28T09:33:13.198Z,1.27
2019-05-28T09:35:46.823Z,1.20
2019-05-28T09:38:14.423Z,1.40
2019-05-28T09:40:50.627Z,1.40
2019-05-28T09:43:16.413Z,1.10
2019-05-28T09:45:46.004Z,1.03
2019-05-28T09:48:15.661Z,1.30
2019-05-28T09:50:45.244Z,1.40
2019-05-28T09:53:14.912Z,1.33
2019-05-28T09:55:45.583Z,1.13
2019-05-28T09:58:15.167Z,1.33
2019-05-28T10:00:57.332Z,1.70
2019-05-28T10:03:16.400Z,1.60
2019-05-28T10:05:58.576Z,1.63
2019-05-28T10:08:17.353Z,1.40
2019-05-28T10:10:46.934Z,1.30
2019-05-28T10:13:16.636Z,1.40
2019-05-28T10:15:46.340Z,1.10
2019-05-28T10:18:15.973Z,1.00
2019-05-28T10:20:45.722Z,1.07
2019-05-28T10:23:15.302Z,1.20
2019-05-28T10:25:44.918Z,1.10
2019-05-28T10:28:14.598Z,1.07
2019-05-28T10:30:45.260Z,1.17
2019-05-28T10:33:14.844Z,1.13
2019-05-28T10:35:44.423Z,1.20
2019-05-28T10:38:16.800Z,0.97
2019-05-28T10:40:45.286Z,1.20
2019-05-28T10:43:14.944Z,1.63
2019-05-28T10:45:44.700Z,1.27
2019-05-28T10:48:14.823Z,1.40
2019-05-28T10:50:44.422Z,1.13
2019-05-28T10:53:14.116Z,1.37
2019-05-28T10:55:43.734Z,1.30
2019-05-28T10:58:13.388Z,1.20
2019-05-28T11:00:42.971Z,1.40
2019-05-28T11:03:13.644Z,1.27
2019-05-28T11:05:46.280Z,1.30
2019-05-28T11:08:15.868Z,1.40
2019-05-28T11:10:45.763Z,1.37
2019-05-28T11:13:15.348Z,1.00
2019-05-28T11:15:45.017Z,1.40
2019-05-28T11:18:14.664Z,1.10
2019-05-28T11:20:44.342Z,1.20
2019-05-28T11:23:15.375Z,1.20
2019-05-28T11:25:45.043Z,1.20
2019-05-28T11:28:14.633Z,1.30
2019-05-28T11:30:44.300Z,1.10
2019-05-28T11:33:17.251Z,1.07
2019-05-28T11:35:45.034Z,1.50
2019-05-28T11:38:14.636Z,1.60
2019-05-28T11:40:44.277Z,1.27
2019-05-28T11:43:13.930Z,1.57
2019-05-28T11:45:43.604Z,1.20
2019-05-28T11:48:13.204Z,1.30
2019-05-28T11:50:42.791Z,1.03
2019-05-28T11:53:12.458Z,0.97
2019-05-28T11:55:42.056Z,1.00
2019-05-28T11:58:11.648Z,1.00
2019-05-28T12:00:41.407Z,1.20
2019-05-28T12:03:10.996Z,0.90
2019-05-28T12:05:40.580Z,0.90
2019-05-28T12:08:10.184Z,1.20
2019-05-28T12:10:39.928Z,1.30
2019-05-28T12:13:11.029Z,1.00
2019-05-28T12:15:40.760Z,1.10
2019-05-28T12:18:10.437Z,1.10
2019-05-28T12:20:41.100Z,0.90
2019-05-28T12:23:12.079Z,1.00
2019-05-28T12:25:42.128Z,0.97
2019-05-28T12:28:11.797Z,1.10
2019-05-28T12:30:41.471Z,1.17
2019-05-28T12:33:11.124Z,0.97
2019-05-28T12:35:42.961Z,1.10
2019-05-28T12:38:12.323Z,0.97
2019-05-28T12:40:47.620Z,0.90
2019-05-28T12:43:14.082Z,1.00
2019-05-28T12:45:43.828Z,1.10
2019-05-28T12:48:13.581Z,1.10
2019-05-28T12:50:43.265Z,1.20
2019-05-28T12:53:12.853Z,0.93
2019-05-28T12:55:43.549Z,0.83
2019-05-28T12:58:17.064Z,0.90
2019-05-28T13:00:44.531Z,0.90
2019-05-28T13:03:14.187Z,0.80
2019-05-28T13:05:43.883Z,1.00
2019-05-28T13:08:13.389Z,1.03
2019-05-28T13:10:42.974Z,0.80
2019-05-28T13:13:12.561Z,0.90
2019-05-28T13:15:42.850Z,1.00
2019-05-28T13:18:12.704Z,1.00
2019-05-28T13:20:42.471Z,0.90
2019-05-28T13:23:12.072Z,0.90
2019-05-28T13:25:42.338Z,0.80
2019-05-28T13:28:11.921Z,1.10
2019-05-28T13:30:41.584Z,0.70
2019-05-28T13:33:11.628Z,0.80
2019-05-28T13:35:41.233Z,0.80
2019-05-28T13:38:25.659Z,0.80
2019-05-28T13:40:42.222Z,1.00
2019-05-28T13:43:11.835Z,1.10
2019-05-28T13:45:41.594Z,0.80
2019-05-28T13:48:11.253Z,0.70
2019-05-28T13:50:40.915Z,0.70
2019-05-28T13:53:10.567Z,0.90
2019-05-28T13:55:40.177Z,0.70
2019-05-28T13:58:09.836Z,0.97
2019-05-28T14:00:39.500Z,0.73
2019-05-28T14:03:09.439Z,0.70
2019-05-28T14:05:39.367Z,0.90
2019-05-28T14:08:09.048Z,0.80
2019-05-28T14:10:38.644Z,0.70
2019-05-28T14:13:08.356Z,1.00
2019-05-28T14:15:37.950Z,0.70
2019-05-28T14:18:07.810Z,0.80
2019-05-28T14:20:37.649Z,0.80
2019-05-28T14:23:07.578Z,0.90
2019-05-28T14:25:37.204Z,0.60
2019-05-28T14:28:06.818Z,1.00
2019-05-28T14:30:37.571Z,0.80
2019-05-28T14:33:07.180Z,1.00
2019-05-28T14:35:36.765Z,0.90
2019-05-28T14:38:06.406Z,1.00
2019-05-28T14:40:36.130Z,0.80
2019-05-28T14:43:05.764Z,0.63
2019-05-28T14:45:35.434Z,0.93
2019-05-28T14:48:05.301Z,0.83
2019-05-28T14:50:34.902Z,0.80
2019-05-28T14:53:04.518Z,0.97
2019-05-28T14:55:34.106Z,0.83
2019-05-28T14:58:05.597Z,1.03
2019-05-28T15:00:34.909Z,0.87
2019-05-28T15:03:04.830Z,0.80
2019-05-28T15:05:34.537Z,0.80
2019-05-28T15:08:04.282Z,0.80
2019-05-28T15:10:34.949Z,0.83
2019-05-28T15:13:05.026Z,1.00
2019-05-28T15:15:36.520Z,0.90
2019-05-28T15:18:06.042Z,0.77
2019-05-28T15:20:35.686Z,0.90
2019-05-28T15:23:05.284Z,0.93
2019-05-28T15:25:35.024Z,0.80
2019-05-28T15:28:04.797Z,0.80
2019-05-28T15:30:34.450Z,0.90
2019-05-28T15:33:04.043Z,0.97
2019-05-28T15:35:33.690Z,0.97
2019-05-28T15:38:03.306Z,1.10
2019-05-28T15:40:32.954Z,0.80
2019-05-28T15:43:06.272Z,0.70
2019-05-28T15:45:33.836Z,1.00
2019-05-28T15:48:03.521Z,0.93
2019-05-28T15:50:33.181Z,1.13
2019-05-28T15:53:02.766Z,0.83
2019-05-28T15:55:32.345Z,0.90
2019-05-28T15:58:02.024Z,1.27
2019-05-28T16:00:31.598Z,1.00
2019-05-28T16:03:02.549Z,0.80
2019-05-28T16:05:32.193Z,0.90
2019-05-28T16:08:01.785Z,1.10
2019-05-28T16:10:31.548Z,0.80
2019-05-28T16:13:01.193Z,0.93
2019-05-28T16:15:30.952Z,0.90
2019-05-28T16:18:00.617Z,1.10
2019-05-28T16:20:30.333Z,0.93
2019-05-28T16:23:00.022Z,1.00
2019-05-28T16:25:29.609Z,1.00
2019-05-28T16:27:59.272Z,1.30
2019-05-28T16:30:30.280Z,1.47
2019-05-28T16:32:59.922Z,1.43
2019-05-28T16:35:33.915Z,1.13
2019-05-28T16:38:03.506Z,1.07
2019-05-28T16:40:33.172Z,1.00
2019-05-28T16:43:02.848Z,1.10
2019-05-28T16:45:32.417Z,1.00
2019-05-28T16:48:02.020Z,1.30
2019-05-28T16:50:31.713Z,1.17
2019-05-28T16:53:01.303Z,1.10
2019-05-28T16:55:31.119Z,1.20
2019-05-28T16:58:01.721Z,1.00
2019-05-28T17:00:31.449Z,1.00
2019-05-28T17:03:01.187Z,1.20
2019-05-28T17:05:32.122Z,0.90
2019-05-28T17:08:03.386Z,1.10
2019-05-28T17:10:33.898Z,1.20
2019-05-28T17:13:04.130Z,1.10
2019-05-28T17:15:33.949Z,1.03
2019-05-28T17:18:04.502Z,1.00
2019-05-28T17:20:34.226Z,1.00
2019-05-28T17:23:03.844Z,1.00
2019-05-28T17:25:33.496Z,1.30
2019-05-28T17:28:03.200Z,1.20
2019-05-28T17:30:32.819Z,1.17
2019-05-28T17:33:02.484Z,1.13
2019-05-28T17:35:32.128Z,1.20
2019-05-28T17:38:01.883Z,1.40
2019-05-28T17:40:45.306Z,1.30
2019-05-28T17:43:02.843Z,1.13
2019-05-28T17:45:32.434Z,1.33
2019-05-28T17:48:02.161Z,1.10
2019-05-28T17:50:31.806Z,1.47
2019-05-28T17:53:02.565Z,1.20
2019-05-28T17:55:32.232Z,1.20
2019-05-28T17:58:01.879Z,1.10
2019-05-28T18:00:31.481Z,1.30
2019-05-28T18:03:01.170Z,1.20
2019-05-28T18:05:30.964Z,1.30
2019-05-28T18:08:00.589Z,1.20
2019-05-28T18:10:30.249Z,1.40
2019-05-28T18:12:59.912Z,1.40
2019-05-28T18:15:29.579Z,1.30
2019-05-28T18:18:01.743Z,1.40
2019-05-28T18:20:31.345Z,1.30
2019-05-28T18:23:00.970Z,1.50
2019-05-28T18:25:30.632Z,1.20
2019-05-28T18:28:00.329Z,1.43
2019-05-28T18:30:30.103Z,1.30
2019-05-28T18:32:59.787Z,1.50
2019-05-28T18:35:29.523Z,1.40
2019-05-28T18:38:06.086Z,1.50
2019-05-28T18:40:30.493Z,1.50
2019-05-28T18:43:00.164Z,1.63
2019-05-28T18:45:29.782Z,1.60
2019-05-28T18:48:00.454Z,1.53
2019-05-28T18:50:30.139Z,1.50
2019-05-28T18:52:59.823Z,1.67
2019-05-28T18:55:29.411Z,1.27
2019-05-28T18:57:59.157Z,1.60
2019-05-28T19:00:28.793Z,1.50
2019-05-28T19:02:58.633Z,1.50
2019-05-28T19:05:28.321Z,1.40
2019-05-28T19:07:58.060Z,1.40
2019-05-28T19:10:27.659Z,1.53
2019-05-28T19:12:58.272Z,1.40
2019-05-28T19:15:28.179Z,1.50
2019-05-28T19:17:57.855Z,1.67
2019-05-28T19:20:27.530Z,1.80
2019-05-28T19:22:57.200Z,1.57
2019-05-28T19:25:26.873Z,1.60
2019-05-28T19:27:56.506Z,1.80
2019-05-28T19:30:35.893Z,1.60
2019-05-28T19:33:06.090Z,1.40
2019-05-28T19:35:35.856Z,1.70
2019-05-28T19:38:05.516Z,1.70
2019-05-28T19:40:43.304Z,1.70
2019-05-28T19:43:13.024Z,1.50
2019-05-28T19:45:42.627Z,1.82
2019-05-28T19:48:13.316Z,1.80
2019-05-28T19:50:43.014Z,1.43
2019-05-28T19:53:12.632Z,1.80
2019-05-28T19:55:42.993Z,1.50
2019-05-28T19:58:12.641Z,1.73
2019-05-28T20:00:42.472Z,1.90
2019-05-28T20:03:12.231Z,1.70
2019-05-28T20:05:41.798Z,1.70
2019-05-28T20:08:11.642Z,1.67
2019-05-28T20:10:41.550Z,1.97
2019-05-28T20:13:11.142Z,1.80
2019-05-28T20:15:40.847Z,2.00
2019-05-28T20:18:25.886Z,1.70
2019-05-28T20:20:41.815Z,1.90
2019-05-28T20:23:11.567Z,2.23
2019-05-28T20:25:41.152Z,1.70
2019-05-28T20:28:11.812Z,1.97
2019-05-28T20:30:41.450Z,1.70
2019-05-28T20:33:10.965Z,2.20
2019-05-28T20:35:40.845Z,2.00
2019-05-28T20:38:12.469Z,1.97
2019-05-28T20:40:41.645Z,1.80
2019-05-28T20:43:11.370Z,2.00
2019-05-28T20:45:41.047Z,1.93
2019-05-28T20:48:10.819Z,1.90
2019-05-28T20:50:40.394Z,1.70
2019-05-28T20:53:10.006Z,2.20
2019-05-28T20:55:39.772Z,1.90
2019-05-28T20:58:09.469Z,1.93
2019-05-28T21:00:39.138Z,1.70
2019-05-28T21:03:08.726Z,1.87
2019-05-28T21:05:38.341Z,1.90
2019-05-28T21:08:08.001Z,1.73
2019-05-28T21:10:37.589Z,1.90
2019-05-28T21:13:07.230Z,1.93
2019-05-28T21:15:36.806Z,2.13
2019-05-28T21:18:06.481Z,2.00
2019-05-28T21:20:36.301Z,1.90
2019-05-28T21:23:05.894Z,1.90
2019-05-28T21:25:35.495Z,1.70
2019-05-28T21:28:05.148Z,1.90
2019-05-28T21:30:34.753Z,1.63
2019-05-28T21:33:04.413Z,1.77
2019-05-28T21:35:33.982Z,2.03
2019-05-28T21:38:03.614Z,1.90
2019-05-28T21:40:33.190Z,2.00
2019-05-28T21:43:09.307Z,1.60
2019-05-28T21:45:34.055Z,1.80
2019-05-28T21:48:03.669Z,1.90
2019-05-28T21:50:33.327Z,1.77
2019-05-28T21:53:03.290Z,1.90
2019-05-28T21:55:32.861Z,1.60
2019-05-28T21:58:02.465Z,2.00
2019-05-28T22:00:48.473Z,1.73
2019-05-28T22:03:18.387Z,2.00
2019-05-28T22:05:48.178Z,1.87
2019-05-28T22:08:17.958Z,1.80
2019-05-28T22:10:47.707Z,2.10
2019-05-28T22:13:22.276Z,1.87
2019-05-28T22:15:48.798Z,1.70
2019-05-28T22:18:18.498Z,1.77
2019-05-28T22:20:48.218Z,1.80
2019-05-28T22:23:17.958Z,1.70
2019-05-28T22:25:47.706Z,1.67
2019-05-28T22:28:17.416Z,1.73
2019-05-28T22:30:47.145Z,1.80
2019-05-28T22:33:16.851Z,1.80
2019-05-28T22:35:46.571Z,1.50
2019-05-28T22:38:16.286Z,1.90
2019-05-28T22:40:46.006Z,1.60
2019-05-28T22:43:28.891Z,1.60
2019-05-28T22:45:47.012Z,1.50
2019-05-28T22:48:17.864Z,1.50
2019-05-28T22:50:47.951Z,2.10
2019-05-28T22:53:17.663Z,1.37
2019-05-28T22:55:47.379Z,1.53
2019-05-28T22:58:17.092Z,1.37
2019-05-28T23:00:46.734Z,1.30
2019-05-28T23:03:16.317Z,1.40
2019-05-28T23:05:45.890Z,1.83
2019-05-28T23:08:15.466Z,1.73
2019-05-28T23:10:45.034Z,1.53
2019-05-28T23:13:14.554Z,1.80
2019-05-28T23:15:44.145Z,1.40
2019-05-28T23:18:13.642Z,1.90
2019-05-28T23:20:43.220Z,1.50
2019-05-28T23:23:12.718Z,1.57
2019-05-28T23:25:42.294Z,1.63
2019-05-28T23:28:11.864Z,1.43
2019-05-28T23:30:41.380Z,1.67
2019-05-28T23:33:13.002Z,1.60
2019-05-28T23:35:42.125Z,1.50
2019-05-28T23:38:11.638Z,1.33
2019-05-28T23:40:41.134Z,1.60
2019-05-28T23:43:11.616Z,1.57
2019-05-28T23:45:42.496Z,1.50
2019-05-28T23:48:16.162Z,1.50
2019-05-28T23:50:43.298Z,1.60
2019-05-28T23:53:13.782Z,1.70
2019-05-28T23:55:43.475Z,2.17
2019-05-28T23:58:13.883Z,1.67
